createdAt,value
2023-08-31T00:00:54.448Z,0.70
2023-08-31T00:03:21.130Z,0.85
2023-08-31T00:05:48.172Z,0.70
2023-08-31T00:08:14.801Z,0.82
2023-08-31T00:10:41.511Z,0.68
2023-08-31T00:13:09.325Z,0.70
2023-08-31T00:15:37.217Z,0.70
2023-08-31T00:18:07.378Z,0.87
2023-08-31T00:20:34.899Z,0.63
2023-08-31T00:23:02.028Z,0.90
2023-08-31T00:25:29.388Z,0.70
2023-08-31T00:27:58.525Z,0.90
2023-08-31T00:30:29.404Z,0.67
2023-08-31T00:32:56.477Z,0.98
2023-08-31T00:35:23.280Z,0.85
2023-08-31T00:37:50.618Z,1.25
2023-08-31T00:40:17.255Z,1.13
2023-08-31T00:42:43.709Z,0.93
2023-08-31T00:45:11.431Z,1.38
2023-08-31T00:47:37.920Z,1.17
2023-08-31T00:50:04.838Z,0.98
2023-08-31T00:52:31.349Z,1.00
2023-08-31T00:54:58.035Z,1.10
2023-08-31T00:57:27.544Z,1.00
2023-08-31T00:59:56.125Z,1.35
2023-08-31T01:02:31.591Z,0.90
2023-08-31T01:05:27.608Z,1.20
2023-08-31T01:08:06.113Z,1.07
2023-08-31T01:10:49.744Z,1.15
2023-08-31T01:13:22.879Z,1.17
2023-08-31T01:15:54.738Z,1.33
2023-08-31T01:18:27.690Z,1.30
2023-08-31T01:21:03.425Z,1.30
2023-08-31T01:23:49.168Z,1.77
2023-08-31T01:26:15.846Z,1.20
2023-08-31T01:28:42.315Z,1.45
2023-08-31T01:31:08.762Z,1.40
2023-08-31T01:33:35.891Z,1.23
2023-08-31T01:36:06.160Z,1.90
2023-08-31T01:38:36.176Z,1.27
2023-08-31T01:41:07.913Z,1.67
2023-08-31T01:43:35.661Z,1.30
2023-08-31T01:46:02.311Z,1.50
2023-08-31T01:48:28.838Z,1.50
2023-08-31T01:50:55.956Z,2.10
2023-08-31T01:53:23.492Z,1.80
2023-08-31T01:55:49.880Z,1.90
2023-08-31T01:58:16.411Z,1.80
2023-08-31T02:00:42.855Z,1.92
2023-08-31T02:03:09.476Z,2.95
2023-08-31T02:05:36.070Z,2.40
2023-08-31T02:08:02.537Z,2.60
2023-08-31T02:10:30.758Z,2.20
2023-08-31T02:12:57.284Z,1.98
2023-08-31T02:15:24.134Z,1.95
2023-08-31T02:17:50.704Z,2.17
2023-08-31T02:20:17.337Z,1.77
2023-08-31T02:22:43.864Z,2.20
2023-08-31T02:25:10.338Z,1.80
2023-08-31T02:27:36.916Z,1.90
2023-08-31T02:30:06.035Z,2.88
2023-08-31T02:32:32.707Z,1.83
2023-08-31T02:34:59.229Z,2.07
2023-08-31T02:37:25.823Z,2.35
2023-08-31T02:39:52.258Z,2.58
2023-08-31T02:42:18.656Z,2.47
2023-08-31T02:44:45.167Z,2.65
2023-08-31T02:47:11.641Z,2.70
2023-08-31T02:49:38.182Z,2.47
2023-08-31T02:52:04.989Z,2.42
2023-08-31T02:54:31.418Z,3.00
2023-08-31T02:56:57.912Z,2.47
2023-08-31T02:59:24.460Z,2.83
2023-08-31T03:01:51.051Z,2.97
2023-08-31T03:04:18.808Z,3.58
2023-08-31T03:06:46.293Z,2.88
2023-08-31T03:09:12.778Z,2.53
2023-08-31T03:11:39.236Z,2.40
2023-08-31T03:14:05.784Z,2.60
2023-08-31T03:16:32.293Z,2.63
2023-08-31T03:18:58.767Z,1.98
2023-08-31T03:21:25.225Z,2.55
2023-08-31T03:23:51.615Z,1.33
2023-08-31T03:26:18.171Z,1.67
2023-08-31T03:28:44.706Z,1.38
2023-08-31T03:31:11.185Z,1.35
2023-08-31T03:33:37.776Z,1.90
2023-08-31T03:36:05.895Z,1.87
2023-08-31T03:38:33.153Z,1.98
2023-08-31T03:40:59.709Z,1.88
2023-08-31T03:43:26.153Z,1.58
2023-08-31T03:45:57.874Z,2.03
2023-08-31T03:48:25.513Z,1.43
2023-08-31T03:50:55.872Z,1.48
2023-08-31T03:53:22.603Z,1.00
2023-08-31T03:55:49.230Z,1.60
2023-08-31T03:58:15.811Z,0.95
2023-08-31T04:00:43.081Z,1.00
2023-08-31T04:03:10.501Z,0.63
2023-08-31T04:05:37.480Z,0.77
2023-08-31T04:08:04.477Z,0.90
2023-08-31T04:10:32.907Z,0.73
2023-08-31T04:13:00.127Z,0.87
2023-08-31T04:15:26.615Z,1.00
2023-08-31T04:17:53.147Z,0.95
2023-08-31T04:20:20.609Z,1.15
2023-08-31T04:22:47.209Z,1.00
2023-08-31T04:25:13.731Z,1.10
2023-08-31T04:27:42.800Z,1.20
2023-08-31T04:30:09.549Z,1.42
2023-08-31T04:32:36.654Z,1.48
2023-08-31T04:35:06.286Z,1.50
2023-08-31T04:37:36.069Z,2.20
2023-08-31T04:40:02.726Z,1.40
2023-08-31T04:42:29.245Z,2.22
2023-08-31T04:44:55.764Z,1.98
2023-08-31T04:47:22.346Z,2.15
2023-08-31T04:49:48.806Z,2.17
2023-08-31T04:52:15.662Z,2.05
2023-08-31T04:54:42.158Z,1.92
2023-08-31T04:57:08.727Z,2.17
2023-08-31T04:59:35.195Z,1.88
2023-08-31T05:02:01.672Z,1.83
2023-08-31T05:04:29.643Z,1.90
2023-08-31T05:06:56.219Z,1.35
2023-08-31T05:09:24.380Z,1.30
2023-08-31T05:11:50.803Z,1.55
2023-08-31T05:14:17.323Z,1.17
2023-08-31T05:16:44.280Z,1.42
2023-08-31T05:19:10.757Z,0.70
2023-08-31T05:21:37.232Z,0.90
2023-08-31T05:24:04.132Z,0.70
2023-08-31T05:26:30.563Z,0.70
2023-08-31T05:28:57.059Z,0.70
2023-08-31T05:31:23.571Z,0.77
2023-08-31T05:33:50.005Z,0.82
2023-08-31T05:36:16.484Z,1.02
2023-08-31T05:38:43.096Z,0.80
2023-08-31T05:41:10.684Z,1.13
2023-08-31T05:43:40.954Z,0.85
2023-08-31T05:46:08.652Z,1.00
2023-08-31T05:48:36.037Z,1.23
2023-08-31T05:51:02.767Z,1.00
2023-08-31T05:53:29.200Z,1.00
2023-08-31T05:56:04.381Z,1.20
2023-08-31T05:58:35.072Z,1.30
2023-08-31T06:01:03.327Z,1.23
2023-08-31T06:03:30.379Z,0.90
2023-08-31T06:05:58.097Z,1.15
2023-08-31T06:08:24.604Z,1.20
2023-08-31T06:10:51.413Z,1.13
2023-08-31T06:13:18.126Z,1.52
2023-08-31T06:15:45.811Z,1.37
2023-08-31T06:18:12.310Z,1.50
2023-08-31T06:20:38.797Z,1.27
2023-08-31T06:23:05.305Z,1.00
2023-08-31T06:25:31.772Z,1.10
2023-08-31T06:27:58.828Z,1.00
2023-08-31T06:30:25.639Z,1.08
2023-08-31T06:32:52.071Z,1.35
2023-08-31T06:35:19.454Z,1.15
2023-08-31T06:37:47.204Z,1.88
2023-08-31T06:40:13.641Z,1.73
2023-08-31T06:42:40.534Z,1.92
2023-08-31T06:45:08.134Z,2.47
2023-08-31T06:47:34.975Z,2.30
2023-08-31T06:50:01.519Z,2.00
2023-08-31T06:52:31.325Z,1.97
2023-08-31T06:54:59.327Z,2.33
2023-08-31T06:57:26.639Z,1.70
2023-08-31T06:59:53.655Z,1.23
2023-08-31T07:02:21.107Z,1.40
2023-08-31T07:04:49.011Z,0.97
2023-08-31T07:07:15.712Z,0.93
2023-08-31T07:09:47.210Z,0.82
2023-08-31T07:12:13.714Z,0.77
2023-08-31T07:14:40.398Z,0.90
2023-08-31T07:17:06.883Z,1.00
2023-08-31T07:19:36.843Z,0.77
2023-08-31T07:22:05.239Z,0.90
2023-08-31T07:24:31.844Z,0.85
2023-08-31T07:26:58.335Z,1.40
2023-08-31T07:29:24.745Z,1.30
2023-08-31T07:31:51.151Z,0.90
2023-08-31T07:34:17.595Z,1.08
2023-08-31T07:36:44.976Z,1.05
2023-08-31T07:39:11.392Z,1.70
2023-08-31T07:41:37.858Z,1.47
2023-08-31T07:44:05.459Z,1.30
2023-08-31T07:46:32.376Z,1.20
2023-08-31T07:48:58.917Z,1.33
2023-08-31T07:51:26.978Z,1.52
2023-08-31T07:53:53.560Z,1.57
2023-08-31T07:56:20.210Z,1.38
2023-08-31T07:58:46.840Z,1.55
2023-08-31T08:01:13.336Z,1.08
2023-08-31T08:03:39.887Z,1.33
2023-08-31T08:06:06.762Z,1.10
2023-08-31T08:08:33.371Z,1.27
2023-08-31T08:11:00.905Z,1.70
2023-08-31T08:13:27.522Z,1.42
2023-08-31T08:15:54.040Z,1.42
2023-08-31T08:18:20.545Z,1.10
2023-08-31T08:20:51.735Z,0.90
2023-08-31T08:23:18.171Z,0.85
2023-08-31T08:25:44.705Z,0.90
2023-08-31T08:28:11.211Z,1.02
2023-08-31T08:30:37.770Z,1.03
2023-08-31T08:33:04.598Z,1.40
2023-08-31T08:35:31.161Z,1.27
2023-08-31T08:37:57.642Z,1.52
2023-08-31T08:40:24.140Z,1.50
2023-08-31T08:42:53.863Z,1.60
2023-08-31T08:45:24.692Z,2.08
2023-08-31T08:47:52.427Z,1.80
2023-08-31T08:50:20.338Z,2.03
2023-08-31T08:52:47.413Z,1.80
2023-08-31T08:55:14.111Z,2.03
2023-08-31T08:57:40.848Z,2.03
2023-08-31T09:00:08.194Z,2.38
2023-08-31T09:02:34.662Z,2.33
2023-08-31T09:05:01.322Z,2.13
2023-08-31T09:07:31.490Z,1.60
2023-08-31T09:09:57.938Z,1.65
2023-08-31T09:12:25.559Z,1.90
2023-08-31T09:15:00.209Z,1.65
2023-08-31T09:17:27.700Z,2.35
2023-08-31T09:20:05.322Z,1.67
2023-08-31T09:22:33.964Z,1.35
2023-08-31T09:25:00.512Z,1.27
2023-08-31T09:27:27.078Z,1.67
2023-08-31T09:29:57.285Z,0.82
2023-08-31T09:32:23.791Z,0.90
2023-08-31T09:34:54.244Z,0.57
2023-08-31T09:37:26.059Z,0.77
2023-08-31T09:39:53.378Z,0.60
2023-08-31T09:42:20.103Z,0.32
2023-08-31T09:44:50.434Z,0.37
2023-08-31T09:47:19.833Z,0.50
2023-08-31T09:49:47.184Z,0.40
2023-08-31T09:52:14.304Z,0.70
2023-08-31T09:54:43.783Z,0.40
2023-08-31T09:57:11.892Z,0.80
2023-08-31T09:59:40.124Z,0.40
2023-08-31T10:02:07.924Z,0.30
2023-08-31T10:04:36.165Z,0.50
2023-08-31T10:07:04.278Z,0.40
2023-08-31T10:09:31.338Z,0.50
2023-08-31T10:11:57.916Z,0.50
2023-08-31T10:14:24.732Z,0.57
2023-08-31T10:16:53.923Z,0.40
2023-08-31T10:19:20.534Z,0.50
2023-08-31T10:21:47.087Z,0.63
2023-08-31T10:24:14.012Z,1.08
2023-08-31T10:26:40.489Z,0.30
2023-08-31T10:29:07.538Z,0.40
2023-08-31T10:31:35.356Z,0.30
2023-08-31T10:34:11.222Z,0.20
2023-08-31T10:36:41.050Z,0.30
2023-08-31T10:39:13.611Z,0.50
2023-08-31T10:41:40.810Z,0.50
2023-08-31T10:44:20.889Z,0.30
2023-08-31T10:46:48.004Z,0.37
2023-08-31T10:49:16.156Z,0.30
2023-08-31T10:52:03.809Z,0.20
2023-08-31T10:54:36.001Z,0.38
2023-08-31T10:57:05.640Z,0.30
2023-08-31T10:59:52.776Z,0.20
2023-08-31T11:02:38.665Z,0.20
2023-08-31T11:05:15.257Z,0.20
2023-08-31T11:07:44.347Z,0.20
2023-08-31T11:10:12.059Z,0.30
2023-08-31T11:12:39.867Z,0.10
2023-08-31T11:15:06.842Z,0.30
2023-08-31T11:17:34.118Z,0.45
2023-08-31T11:20:01.979Z,0.30
2023-08-31T11:22:28.705Z,0.30
2023-08-31T11:24:55.292Z,0.30
2023-08-31T11:27:22.528Z,0.55
2023-08-31T11:29:49.246Z,0.40
2023-08-31T11:32:15.997Z,0.20
2023-08-31T11:34:45.606Z,0.30
2023-08-31T11:37:17.024Z,0.60
2023-08-31T11:39:49.568Z,0.20
2023-08-31T11:42:17.431Z,0.40
2023-08-31T11:44:44.051Z,0.20
2023-08-31T11:47:10.725Z,0.20
2023-08-31T11:49:37.432Z,0.20
2023-08-31T11:52:04.595Z,0.40
2023-08-31T11:54:31.841Z,0.20
2023-08-31T11:56:58.257Z,0.40
2023-08-31T11:59:24.692Z,0.20
2023-08-31T12:01:51.759Z,0.20
2023-08-31T12:04:26.355Z,0.30
2023-08-31T12:06:56.967Z,0.30
2023-08-31T12:09:23.411Z,0.40
2023-08-31T12:11:53.314Z,0.20
2023-08-31T12:14:29.275Z,0.20
2023-08-31T12:17:04.546Z,0.20
2023-08-31T12:19:31.779Z,0.30
2023-08-31T12:21:58.939Z,0.20
2023-08-31T12:24:26.674Z,0.25
2023-08-31T12:26:56.130Z,0.30
2023-08-31T12:29:23.397Z,0.30
2023-08-31T12:31:51.625Z,0.30
2023-08-31T12:34:18.549Z,0.30
2023-08-31T12:36:45.022Z,0.57
2023-08-31T12:39:11.693Z,0.10
2023-08-31T12:41:38.336Z,0.70
2023-08-31T12:44:05.875Z,0.30
2023-08-31T12:46:33.168Z,0.30
2023-08-31T12:49:04.737Z,0.45
2023-08-31T12:51:31.708Z,0.30
2023-08-31T12:53:58.664Z,0.20
2023-08-31T12:56:25.256Z,0.20
2023-08-31T12:58:53.535Z,0.30
2023-08-31T13:01:21.580Z,0.45
2023-08-31T13:03:48.425Z,0.20
2023-08-31T13:06:15.563Z,0.20
2023-08-31T13:08:42.261Z,0.20
2023-08-31T13:11:08.712Z,0.75
2023-08-31T13:13:35.219Z,0.30
2023-08-31T13:16:01.756Z,0.40
2023-08-31T13:18:28.375Z,0.30
2023-08-31T13:20:55.573Z,0.38
2023-08-31T13:23:25.623Z,0.40
2023-08-31T13:25:52.656Z,0.38
2023-08-31T13:28:19.519Z,0.30
2023-08-31T13:30:46.148Z,0.60
2023-08-31T13:33:12.651Z,0.60
2023-08-31T13:35:39.098Z,0.30
2023-08-31T13:38:05.532Z,0.20
2023-08-31T13:40:34.639Z,0.60
2023-08-31T13:43:04.577Z,0.47
2023-08-31T13:45:32.335Z,0.30
2023-08-31T13:48:01.256Z,0.30
2023-08-31T13:50:28.964Z,0.40
2023-08-31T13:52:55.548Z,0.20
2023-08-31T13:55:23.293Z,0.30
2023-08-31T13:57:50.304Z,0.20
2023-08-31T14:00:17.962Z,0.40
2023-08-31T14:02:47.535Z,0.30
2023-08-31T14:05:15.701Z,0.30
2023-08-31T14:07:42.224Z,0.45
2023-08-31T14:10:09.137Z,0.20
2023-08-31T14:12:35.663Z,0.30
2023-08-31T14:15:04.886Z,0.30
2023-08-31T14:17:32.623Z,0.30
2023-08-31T14:20:06.835Z,0.30
2023-08-31T14:22:33.816Z,0.50
2023-08-31T14:25:01.950Z,0.22
2023-08-31T14:27:29.219Z,0.30
2023-08-31T14:29:55.807Z,0.40
2023-08-31T14:32:23.208Z,0.28
2023-08-31T14:34:49.636Z,0.30
2023-08-31T14:37:16.418Z,0.32
2023-08-31T14:39:42.900Z,0.40
2023-08-31T14:42:09.372Z,0.40
2023-08-31T14:44:35.856Z,0.30
2023-08-31T14:47:02.367Z,0.38
2023-08-31T14:49:29.503Z,0.20
2023-08-31T14:51:55.965Z,0.40
2023-08-31T14:54:23.480Z,0.67
2023-08-31T14:56:50.404Z,0.20
2023-08-31T14:59:16.823Z,0.40
2023-08-31T15:01:43.495Z,0.75
2023-08-31T15:04:10.080Z,0.40
2023-08-31T15:06:36.595Z,0.20
2023-08-31T15:09:03.131Z,0.22
2023-08-31T15:11:29.941Z,0.20
2023-08-31T15:13:56.452Z,0.30
2023-08-31T15:16:24.039Z,0.30
2023-08-31T15:18:50.562Z,0.20
2023-08-31T15:21:18.140Z,0.20
2023-08-31T15:23:45.862Z,0.70
2023-08-31T15:26:14.398Z,0.30
2023-08-31T15:28:40.988Z,0.30
2023-08-31T15:31:07.533Z,0.30
2023-08-31T15:33:34.569Z,0.40
2023-08-31T15:36:06.328Z,0.40
2023-08-31T15:38:33.766Z,0.30
2023-08-31T15:41:01.133Z,0.43
2023-08-31T15:43:32.715Z,0.30
2023-08-31T15:46:00.359Z,0.55
2023-08-31T15:48:29.218Z,0.40
2023-08-31T15:50:56.678Z,0.40
2023-08-31T15:53:23.421Z,0.85
2023-08-31T15:55:50.640Z,0.90
2023-08-31T15:58:17.515Z,0.52
2023-08-31T16:00:44.124Z,0.75
2023-08-31T16:03:11.556Z,0.32
2023-08-31T16:05:38.997Z,0.40
2023-08-31T16:08:06.214Z,0.40
2023-08-31T16:10:33.223Z,0.40
2023-08-31T16:12:59.953Z,0.40
2023-08-31T16:15:28.400Z,0.40
2023-08-31T16:17:55.426Z,0.40
2023-08-31T16:20:22.067Z,0.30
2023-08-31T16:22:48.582Z,0.30
2023-08-31T16:25:18.664Z,0.40
2023-08-31T16:27:46.573Z,0.60
2023-08-31T16:30:16.540Z,0.30
2023-08-31T16:32:43.925Z,0.30
2023-08-31T16:35:13.902Z,0.30
2023-08-31T16:37:42.458Z,0.38
2023-08-31T16:40:13.117Z,0.52
2023-08-31T16:42:40.823Z,0.40
2023-08-31T16:45:08.344Z,0.40
2023-08-31T16:47:36.688Z,0.30
2023-08-31T16:50:07.183Z,0.70
2023-08-31T16:52:33.903Z,0.73
2023-08-31T16:55:00.675Z,0.43
2023-08-31T16:57:27.639Z,0.40
2023-08-31T16:59:54.214Z,0.55
2023-08-31T17:02:20.909Z,0.40
2023-08-31T17:04:48.046Z,0.30
2023-08-31T17:07:14.974Z,0.32
2023-08-31T17:09:42.292Z,0.47
2023-08-31T17:12:08.880Z,0.40
2023-08-31T17:14:35.372Z,0.47
2023-08-31T17:17:04.272Z,0.38
2023-08-31T17:19:30.790Z,0.77
2023-08-31T17:21:57.325Z,0.40
2023-08-31T17:24:23.843Z,0.50
2023-08-31T17:26:50.295Z,0.55
2023-08-31T17:29:16.812Z,0.40
2023-08-31T17:31:45.384Z,0.60
2023-08-31T17:34:17.284Z,0.97
2023-08-31T17:36:45.430Z,0.50
2023-08-31T17:39:13.445Z,0.50
2023-08-31T17:41:40.068Z,0.50
2023-08-31T17:44:06.611Z,0.40
2023-08-31T17:46:33.112Z,0.50
2023-08-31T17:48:59.589Z,0.60
2023-08-31T17:51:26.136Z,0.70
2023-08-31T17:53:55.876Z,0.82
2023-08-31T17:56:22.388Z,0.70
2023-08-31T17:58:48.987Z,0.50
2023-08-31T18:01:15.534Z,0.50
2023-08-31T18:03:41.953Z,0.57
2023-08-31T18:06:08.535Z,0.50
2023-08-31T18:08:36.448Z,0.50
2023-08-31T18:11:03.721Z,0.70
2023-08-31T18:13:30.159Z,0.70
2023-08-31T18:15:58.045Z,0.38
2023-08-31T18:18:27.576Z,0.60
2023-08-31T18:21:00.878Z,0.50
2023-08-31T18:23:30.879Z,0.33
2023-08-31T18:25:57.497Z,1.25
2023-08-31T18:28:23.978Z,0.70
2023-08-31T18:30:56.387Z,0.55
2023-08-31T18:33:27.628Z,0.50
2023-08-31T18:35:55.971Z,0.50
2023-08-31T18:38:24.780Z,0.50
2023-08-31T18:40:52.685Z,0.68
2023-08-31T18:43:20.214Z,0.60
2023-08-31T18:45:47.690Z,0.40
2023-08-31T18:48:15.700Z,0.37
2023-08-31T18:50:42.906Z,0.50
2023-08-31T18:53:09.615Z,0.65
2023-08-31T18:55:36.918Z,0.63
2023-08-31T18:58:04.312Z,0.50
2023-08-31T19:00:31.495Z,0.50
2023-08-31T19:02:58.086Z,0.52
2023-08-31T19:05:24.710Z,0.40
2023-08-31T19:07:52.479Z,0.52
2023-08-31T19:10:19.706Z,0.40
2023-08-31T19:12:48.422Z,0.57
2023-08-31T19:15:16.417Z,1.25
2023-08-31T19:17:43.903Z,0.50
2023-08-31T19:20:15.670Z,0.40
2023-08-31T19:22:46.626Z,0.43
2023-08-31T19:25:13.634Z,0.20
2023-08-31T19:27:41.036Z,0.63
2023-08-31T19:30:09.323Z,0.50
2023-08-31T19:32:36.664Z,0.50
2023-08-31T19:35:12.337Z,0.40
2023-08-31T19:37:51.624Z,0.60
2023-08-31T19:40:20.014Z,0.52
2023-08-31T19:42:47.416Z,0.30
2023-08-31T19:45:14.718Z,0.95
2023-08-31T19:47:41.689Z,0.73
2023-08-31T19:50:10.456Z,0.50
2023-08-31T19:52:38.083Z,0.57
2023-08-31T19:55:05.208Z,0.60
2023-08-31T19:57:31.652Z,0.60
2023-08-31T19:59:58.124Z,0.52
2023-08-31T20:02:24.567Z,0.33
2023-08-31T20:04:51.005Z,0.50
2023-08-31T20:07:18.061Z,0.70
2023-08-31T20:09:44.506Z,0.82
2023-08-31T20:12:11.021Z,0.77
2023-08-31T20:14:37.489Z,0.80
2023-08-31T20:17:04.451Z,0.82
2023-08-31T20:19:30.904Z,0.70
2023-08-31T20:21:57.326Z,0.77
2023-08-31T20:24:24.164Z,0.73
2023-08-31T20:26:52.344Z,0.50
2023-08-31T20:29:21.234Z,0.57
2023-08-31T20:31:48.055Z,0.80
2023-08-31T20:34:14.484Z,0.50
2023-08-31T20:36:40.982Z,0.60
2023-08-31T20:39:13.116Z,0.80
2023-08-31T20:41:40.346Z,0.93
2023-08-31T20:44:07.173Z,0.60
2023-08-31T20:46:41.022Z,0.90
2023-08-31T20:49:07.546Z,0.90
2023-08-31T20:51:34.114Z,0.93
2023-08-31T20:54:01.658Z,1.20
2023-08-31T20:56:29.109Z,1.10
2023-08-31T20:58:55.765Z,0.93
2023-08-31T21:01:24.582Z,1.10
2023-08-31T21:03:57.114Z,0.93
2023-08-31T21:06:25.394Z,1.45
2023-08-31T21:08:53.664Z,1.30
2023-08-31T21:11:24.747Z,1.15
2023-08-31T21:13:53.986Z,1.48
2023-08-31T21:16:23.442Z,1.13
2023-08-31T21:18:51.274Z,1.35
2023-08-31T21:21:18.083Z,2.33
2023-08-31T21:23:44.882Z,2.05
2023-08-31T21:26:11.377Z,1.70
2023-08-31T21:28:37.894Z,2.47
2023-08-31T21:31:04.946Z,1.45
2023-08-31T21:33:32.281Z,1.52
2023-08-31T21:36:04.331Z,1.67
2023-08-31T21:38:32.047Z,1.88
2023-08-31T21:41:05.551Z,1.93
2023-08-31T21:43:33.183Z,1.70
2023-08-31T21:46:00.565Z,1.98
2023-08-31T21:48:27.226Z,2.30
2023-08-31T21:50:53.865Z,1.73
2023-08-31T21:53:20.295Z,1.90
2023-08-31T21:55:46.868Z,1.85
2023-08-31T21:58:13.546Z,2.38
2023-08-31T22:00:40.177Z,2.20
2023-08-31T22:03:07.151Z,2.03
2023-08-31T22:05:36.583Z,1.80
2023-08-31T22:08:03.190Z,1.63
2023-08-31T22:10:31.852Z,2.10
2023-08-31T22:12:58.898Z,1.50
2023-08-31T22:15:26.703Z,2.17
2023-08-31T22:17:56.816Z,1.67
2023-08-31T22:20:25.523Z,1.48
2023-08-31T22:22:54.737Z,1.38
2023-08-31T22:25:24.468Z,1.67
2023-08-31T22:27:52.871Z,1.35
2023-08-31T22:30:19.792Z,2.10
2023-08-31T22:32:46.716Z,2.05
2023-08-31T22:35:13.636Z,1.83
2023-08-31T22:37:43.150Z,2.00
2023-08-31T22:40:11.462Z,2.15
2023-08-31T22:42:39.034Z,1.67
2023-08-31T22:45:07.317Z,2.00
2023-08-31T22:47:37.098Z,1.75
2023-08-31T22:50:05.831Z,2.20
2023-08-31T22:52:35.455Z,1.63
2023-08-31T22:55:02.028Z,1.53
2023-08-31T22:57:28.492Z,2.30
2023-08-31T22:59:54.993Z,1.90
2023-08-31T23:02:21.610Z,1.67
2023-08-31T23:04:48.155Z,1.73
2023-08-31T23:07:14.555Z,1.77
2023-08-31T23:09:41.222Z,1.65
2023-08-31T23:12:07.997Z,2.42
2023-08-31T23:14:34.539Z,1.98
2023-08-31T23:17:02.111Z,2.67
2023-08-31T23:19:28.990Z,2.30
2023-08-31T23:21:55.469Z,2.00
2023-08-31T23:24:21.960Z,2.10
2023-08-31T23:26:48.540Z,2.58
2023-08-31T23:29:15.027Z,2.00
2023-08-31T23:31:41.513Z,1.83
2023-08-31T23:34:08.498Z,2.20
2023-08-31T23:36:34.990Z,2.30
2023-08-31T23:39:02.330Z,2.45
2023-08-31T23:41:28.838Z,2.30
2023-08-31T23:43:55.291Z,2.10
2023-08-31T23:46:21.857Z,2.30
2023-08-31T23:48:48.316Z,2.90
2023-08-31T23:51:14.910Z,2.72
2023-08-31T23:53:41.449Z,2.40
2023-08-31T23:56:07.961Z,2.13
2023-08-31T23:58:34.720Z,2.50
